sensor_id;sensor_type;location;lat;lon;timestamp;temperature;humidity
71188;DHT22;58893;53.130;8.158;2023-02-14T00:01:41;7.00;83.50
71188;DHT22;58893;53.130;8.158;2023-02-14T00:04:08;7.00;83.80
71188;DHT22;58893;53.130;8.158;2023-02-14T00:06:34;7.00;84.10
71188;DHT22;58893;53.130;8.158;2023-02-14T00:09:04;7.00;84.30
71188;DHT22;58893;53.130;8.158;2023-02-14T00:11:31;7.00;85.10
71188;DHT22;58893;53.130;8.158;2023-02-14T00:13:57;7.00;85.20
71188;DHT22;58893;53.130;8.158;2023-02-14T00:16:41;7.10;86.40
71188;DHT22;58893;53.130;8.158;2023-02-14T00:19:07;7.10;87.90
71188;DHT22;58893;53.130;8.158;2023-02-14T00:21:35;7.10;89.50
71188;DHT22;58893;53.130;8.158;2023-02-14T00:24:06;7.20;90.10
71188;DHT22;58893;53.130;8.158;2023-02-14T00:26:32;7.20;90.40
71188;DHT22;58893;53.130;8.158;2023-02-14T00:28:58;7.20;90.70
71188;DHT22;58893;53.130;8.158;2023-02-14T00:31:23;7.30;90.90
71188;DHT22;58893;53.130;8.158;2023-02-14T00:33:49;7.30;91.00
71188;DHT22;58893;53.130;8.158;2023-02-14T00:36:16;7.30;91.10
71188;DHT22;58893;53.130;8.158;2023-02-14T00:38:44;7.30;91.20
71188;DHT22;58893;53.130;8.158;2023-02-14T00:41:09;7.30;91.20
71188;DHT22;58893;53.130;8.158;2023-02-14T00:43:50;7.30;91.00
71188;DHT22;58893;53.130;8.158;2023-02-14T00:46:18;7.30;90.80
71188;DHT22;58893;53.130;8.158;2023-02-14T00:48:47;7.30;90.90
71188;DHT22;58893;53.130;8.158;2023-02-14T00:51:13;7.40;91.00
71188;DHT22;58893;53.130;8.158;2023-02-14T00:53:39;7.40;91.00
71188;DHT22;58893;53.130;8.158;2023-02-14T00:56:05;7.40;90.80
71188;DHT22;58893;53.130;8.158;2023-02-14T00:58:31;7.40;90.80
71188;DHT22;58893;53.130;8.158;2023-02-14T01:00:57;7.40;90.80
71188;DHT22;58893;53.130;8.158;2023-02-14T01:03:23;7.40;90.90
71188;DHT22;58893;53.130;8.158;2023-02-14T01:05:49;7.40;90.90
71188;DHT22;58893;53.130;8.158;2023-02-14T01:08:15;7.40;90.90
71188;DHT22;58893;53.130;8.158;2023-02-14T01:10:41;7.40;90.90
71188;DHT22;58893;53.130;8.158;2023-02-14T01:13:08;7.40;90.90
71188;DHT22;58893;53.130;8.158;2023-02-14T01:15:42;7.40;90.90
71188;DHT22;58893;53.130;8.158;2023-02-14T01:18:08;7.40;90.90
71188;DHT22;58893;53.130;8.158;2023-02-14T01:20:34;7.40;91.20
71188;DHT22;58893;53.130;8.158;2023-02-14T01:23:00;7.40;90.90
71188;DHT22;58893;53.130;8.158;2023-02-14T01:25:25;7.40;90.80
71188;DHT22;58893;53.130;8.158;2023-02-14T01:27:51;7.40;90.70
71188;DHT22;58893;53.130;8.158;2023-02-14T01:30:17;7.40;90.70
71188;DHT22;58893;53.130;8.158;2023-02-14T01:32:43;7.30;90.50
71188;DHT22;58893;53.130;8.158;2023-02-14T01:35:09;7.30;90.50
71188;DHT22;58893;53.130;8.158;2023-02-14T01:37:35;7.30;90.40
71188;DHT22;58893;53.130;8.158;2023-02-14T01:40:00;7.30;90.40
71188;DHT22;58893;53.130;8.158;2023-02-14T01:42:27;7.30;90.40
71188;DHT22;58893;53.130;8.158;2023-02-14T01:44:56;7.30;91.00
71188;DHT22;58893;53.130;8.158;2023-02-14T01:47:22;7.20;90.10
71188;DHT22;58893;53.130;8.158;2023-02-14T01:49:52;7.20;90.90
71188;DHT22;58893;53.130;8.158;2023-02-14T01:52:22;7.20;89.80
71188;DHT22;58893;53.130;8.158;2023-02-14T01:55:04;7.20;89.60
71188;DHT22;58893;53.130;8.158;2023-02-14T01:57:36;7.20;89.50
71188;DHT22;58893;53.130;8.158;2023-02-14T02:00:05;7.20;89.60
71188;DHT22;58893;53.130;8.158;2023-02-14T02:02:50;7.20;89.50
71188;DHT22;58893;53.130;8.158;2023-02-14T02:05:16;7.20;89.40
71188;DHT22;58893;53.130;8.158;2023-02-14T02:07:51;7.10;89.30
71188;DHT22;58893;53.130;8.158;2023-02-14T02:10:17;7.10;89.30
71188;DHT22;58893;53.130;8.158;2023-02-14T02:12:43;7.10;89.20
71188;DHT22;58893;53.130;8.158;2023-02-14T02:15:09;7.10;89.20
71188;DHT22;58893;53.130;8.158;2023-02-14T02:20:57;7.10;89.10
71188;DHT22;58893;53.130;8.158;2023-02-14T02:45:48;7.00;90.00
71188;DHT22;58893;53.130;8.158;2023-02-14T02:48:39;7.00;90.10
71188;DHT22;58893;53.130;8.158;2023-02-14T02:51:11;7.00;90.10
71188;DHT22;58893;53.130;8.158;2023-02-14T02:54:13;7.00;90.00
71188;DHT22;58893;53.130;8.158;2023-02-14T02:56:48;7.00;90.00
71188;DHT22;58893;53.130;8.158;2023-02-14T02:59:31;7.00;90.00
71188;DHT22;58893;53.130;8.158;2023-02-14T03:04:23;7.00;90.00
71188;DHT22;58893;53.130;8.158;2023-02-14T03:07:09;6.90;90.00
71188;DHT22;58893;53.130;8.158;2023-02-14T03:09:58;7.00;90.00
71188;DHT22;58893;53.130;8.158;2023-02-14T03:23:38;6.90;90.10
71188;DHT22;58893;53.130;8.158;2023-02-14T03:28:58;6.90;90.20
71188;DHT22;58893;53.130;8.158;2023-02-14T03:31:38;6.90;90.20
71188;DHT22;58893;53.130;8.158;2023-02-14T03:34:26;6.90;90.30
71188;DHT22;58893;53.130;8.158;2023-02-14T03:37:14;6.90;90.20
71188;DHT22;58893;53.130;8.158;2023-02-14T03:39:50;6.90;90.10
71188;DHT22;58893;53.130;8.158;2023-02-14T03:42:46;6.90;90.00
71188;DHT22;58893;53.130;8.158;2023-02-14T03:45:19;6.90;90.00
71188;DHT22;58893;53.130;8.158;2023-02-14T03:47:47;6.90;90.00
71188;DHT22;58893;53.130;8.158;2023-02-14T03:50:18;6.90;90.00
71188;DHT22;58893;53.130;8.158;2023-02-14T03:52:46;6.90;90.00
71188;DHT22;58893;53.130;8.158;2023-02-14T03:55:15;6.90;90.00
71188;DHT22;58893;53.130;8.158;2023-02-14T03:58:05;6.90;90.00
71188;DHT22;58893;53.130;8.158;2023-02-14T04:00:36;6.90;90.00
71188;DHT22;58893;53.130;8.158;2023-02-14T04:03:06;6.90;90.00
71188;DHT22;58893;53.130;8.158;2023-02-14T04:05:36;6.90;90.00
71188;DHT22;58893;53.130;8.158;2023-02-14T04:08:06;6.90;90.00
71188;DHT22;58893;53.130;8.158;2023-02-14T04:10:32;6.90;90.00
71188;DHT22;58893;53.130;8.158;2023-02-14T04:12:58;6.90;89.90
71188;DHT22;58893;53.130;8.158;2023-02-14T04:15:24;6.80;89.80
71188;DHT22;58893;53.130;8.158;2023-02-14T04:17:49;6.90;90.00
71188;DHT22;58893;53.130;8.158;2023-02-14T04:20:33;6.80;90.00
71188;DHT22;58893;53.130;8.158;2023-02-14T04:22:59;6.80;90.00
71188;DHT22;58893;53.130;8.158;2023-02-14T04:25:24;6.90;90.00
71188;DHT22;58893;53.130;8.158;2023-02-14T04:27:50;6.80;90.10
71188;DHT22;58893;53.130;8.158;2023-02-14T04:30:16;6.80;90.10
71188;DHT22;58893;53.130;8.158;2023-02-14T04:32:42;6.80;90.10
71188;DHT22;58893;53.130;8.158;2023-02-14T04:35:08;6.80;90.20
71188;DHT22;58893;53.130;8.158;2023-02-14T04:37:34;6.90;90.10
71188;DHT22;58893;53.130;8.158;2023-02-14T04:40:00;6.80;90.00
71188;DHT22;58893;53.130;8.158;2023-02-14T04:42:25;6.80;89.70
71188;DHT22;58893;53.130;8.158;2023-02-14T04:44:51;6.80;89.60
71188;DHT22;58893;53.130;8.158;2023-02-14T04:47:17;6.70;88.10
71188;DHT22;58893;53.130;8.158;2023-02-14T04:49:42;6.70;89.40
71188;DHT22;58893;53.130;8.158;2023-02-14T04:52:08;6.70;86.50
71188;DHT22;58893;53.130;8.158;2023-02-14T04:54:34;6.70;86.80
71188;DHT22;58893;53.130;8.158;2023-02-14T04:56:59;6.60;87.20
71188;DHT22;58893;53.130;8.158;2023-02-14T04:59:25;6.60;89.30
71188;DHT22;58893;53.130;8.158;2023-02-14T05:01:51;6.60;90.60
71188;DHT22;58893;53.130;8.158;2023-02-14T05:04:17;6.60;89.60
71188;DHT22;58893;53.130;8.158;2023-02-14T05:06:43;6.60;89.10
71188;DHT22;58893;53.130;8.158;2023-02-14T05:09:08;6.60;87.60
71188;DHT22;58893;53.130;8.158;2023-02-14T05:11:34;6.60;87.10
71188;DHT22;58893;53.130;8.158;2023-02-14T05:14:00;6.60;86.60
71188;DHT22;58893;53.130;8.158;2023-02-14T05:16:25;6.60;86.20
71188;DHT22;58893;53.130;8.158;2023-02-14T05:18:51;6.60;86.70
71188;DHT22;58893;53.130;8.158;2023-02-14T05:21:17;6.50;87.30
71188;DHT22;58893;53.130;8.158;2023-02-14T05:23:42;6.50;87.20
71188;DHT22;58893;53.130;8.158;2023-02-14T05:26:08;6.50;86.60
71188;DHT22;58893;53.130;8.158;2023-02-14T05:28:34;6.50;86.10
71188;DHT22;58893;53.130;8.158;2023-02-14T05:31:00;6.50;85.60
71188;DHT22;58893;53.130;8.158;2023-02-14T05:33:26;6.40;84.90
71188;DHT22;58893;53.130;8.158;2023-02-14T05:35:52;6.40;84.50
71188;DHT22;58893;53.130;8.158;2023-02-14T05:38:18;6.40;84.10
71188;DHT22;58893;53.130;8.158;2023-02-14T05:40:44;6.40;83.80
71188;DHT22;58893;53.130;8.158;2023-02-14T05:43:10;6.30;83.40
71188;DHT22;58893;53.130;8.158;2023-02-14T05:45:35;6.30;83.00
71188;DHT22;58893;53.130;8.158;2023-02-14T05:48:01;6.20;82.60
71188;DHT22;58893;53.130;8.158;2023-02-14T05:50:27;6.20;82.40
71188;DHT22;58893;53.130;8.158;2023-02-14T05:52:53;6.20;82.20
71188;DHT22;58893;53.130;8.158;2023-02-14T05:55:19;6.10;82.00
71188;DHT22;58893;53.130;8.158;2023-02-14T05:57:45;6.10;81.90
71188;DHT22;58893;53.130;8.158;2023-02-14T06:00:12;6.00;81.80
71188;DHT22;58893;53.130;8.158;2023-02-14T06:02:38;6.00;82.00
71188;DHT22;58893;53.130;8.158;2023-02-14T06:05:04;5.90;83.90
71188;DHT22;58893;53.130;8.158;2023-02-14T06:07:29;5.90;85.50
71188;DHT22;58893;53.130;8.158;2023-02-14T06:09:55;5.90;85.50
71188;DHT22;58893;53.130;8.158;2023-02-14T06:12:21;5.90;86.00
71188;DHT22;58893;53.130;8.158;2023-02-14T06:14:46;5.90;88.40
71188;DHT22;58893;53.130;8.158;2023-02-14T06:17:12;5.80;87.20
71188;DHT22;58893;53.130;8.158;2023-02-14T06:19:37;5.80;86.80
71188;DHT22;58893;53.130;8.158;2023-02-14T06:22:03;5.80;91.00
71188;DHT22;58893;53.130;8.158;2023-02-14T06:24:29;5.80;88.40
71188;DHT22;58893;53.130;8.158;2023-02-14T06:26:55;5.70;90.50
71188;DHT22;58893;53.130;8.158;2023-02-14T06:29:20;5.70;86.30
71188;DHT22;58893;53.130;8.158;2023-02-14T06:31:46;5.70;88.20
71188;DHT22;58893;53.130;8.158;2023-02-14T06:34:11;5.80;89.00
71188;DHT22;58893;53.130;8.158;2023-02-14T06:36:37;5.80;83.10
71188;DHT22;58893;53.130;8.158;2023-02-14T06:39:03;5.70;82.70
71188;DHT22;58893;53.130;8.158;2023-02-14T06:41:29;5.70;82.60
71188;DHT22;58893;53.130;8.158;2023-02-14T06:43:54;5.70;82.70
71188;DHT22;58893;53.130;8.158;2023-02-14T06:46:20;5.70;84.90
71188;DHT22;58893;53.130;8.158;2023-02-14T06:48:46;5.70;82.50
71188;DHT22;58893;53.130;8.158;2023-02-14T06:51:12;5.70;82.90
71188;DHT22;58893;53.130;8.158;2023-02-14T06:53:37;5.70;84.30
71188;DHT22;58893;53.130;8.158;2023-02-14T06:56:03;5.70;86.90
71188;DHT22;58893;53.130;8.158;2023-02-14T06:58:30;5.80;85.80
71188;DHT22;58893;53.130;8.158;2023-02-14T07:00:56;5.80;86.80
71188;DHT22;58893;53.130;8.158;2023-02-14T07:03:22;5.90;87.60
71188;DHT22;58893;53.130;8.158;2023-02-14T07:05:48;5.90;87.90
71188;DHT22;58893;53.130;8.158;2023-02-14T07:08:13;5.90;87.50
71188;DHT22;58893;53.130;8.158;2023-02-14T07:10:39;6.00;86.90
71188;DHT22;58893;53.130;8.158;2023-02-14T07:13:05;5.90;89.00
71188;DHT22;58893;53.130;8.158;2023-02-14T07:15:31;5.90;88.00
71188;DHT22;58893;53.130;8.158;2023-02-14T07:17:56;6.00;89.00
71188;DHT22;58893;53.130;8.158;2023-02-14T07:20:23;6.00;87.20
71188;DHT22;58893;53.130;8.158;2023-02-14T07:22:48;6.00;85.90
71188;DHT22;58893;53.130;8.158;2023-02-14T07:25:14;6.00;86.20
71188;DHT22;58893;53.130;8.158;2023-02-14T07:27:39;6.00;86.70
71188;DHT22;58893;53.130;8.158;2023-02-14T07:30:06;6.00;86.90
71188;DHT22;58893;53.130;8.158;2023-02-14T07:32:32;6.00;86.60
71188;DHT22;58893;53.130;8.158;2023-02-14T07:34:58;6.00;85.60
71188;DHT22;58893;53.130;8.158;2023-02-14T07:37:23;6.00;85.00
71188;DHT22;58893;53.130;8.158;2023-02-14T07:39:49;6.00;84.70
71188;DHT22;58893;53.130;8.158;2023-02-14T07:42:14;6.00;84.20
71188;DHT22;58893;53.130;8.158;2023-02-14T07:44:40;6.00;86.30
71188;DHT22;58893;53.130;8.158;2023-02-14T07:47:07;6.00;83.90
71188;DHT22;58893;53.130;8.158;2023-02-14T07:49:35;6.00;83.90
71188;DHT22;58893;53.130;8.158;2023-02-14T07:52:01;6.00;83.80
71188;DHT22;58893;53.130;8.158;2023-02-14T07:54:27;6.00;83.80
71188;DHT22;58893;53.130;8.158;2023-02-14T07:56:53;6.00;84.10
71188;DHT22;58893;53.130;8.158;2023-02-14T07:59:19;6.00;85.10
71188;DHT22;58893;53.130;8.158;2023-02-14T08:01:44;6.10;86.20
71188;DHT22;58893;53.130;8.158;2023-02-14T08:04:10;6.10;86.90
71188;DHT22;58893;53.130;8.158;2023-02-14T08:06:38;6.20;87.70
71188;DHT22;58893;53.130;8.158;2023-02-14T08:09:04;6.20;88.20
71188;DHT22;58893;53.130;8.158;2023-02-14T08:11:30;6.30;88.50
71188;DHT22;58893;53.130;8.158;2023-02-14T08:14:14;6.40;88.80
71188;DHT22;58893;53.130;8.158;2023-02-14T08:16:40;6.50;89.20
71188;DHT22;58893;53.130;8.158;2023-02-14T08:19:05;6.50;90.00
71188;DHT22;58893;53.130;8.158;2023-02-14T08:21:31;6.60;89.70
71188;DHT22;58893;53.130;8.158;2023-02-14T08:23:57;6.60;89.90
71188;DHT22;58893;53.130;8.158;2023-02-14T08:26:23;6.70;90.00
71188;DHT22;58893;53.130;8.158;2023-02-14T08:28:49;6.70;90.40
71188;DHT22;58893;53.130;8.158;2023-02-14T08:31:24;6.70;90.10
71188;DHT22;58893;53.130;8.158;2023-02-14T08:33:50;6.70;90.10
71188;DHT22;58893;53.130;8.158;2023-02-14T08:36:15;6.80;90.00
71188;DHT22;58893;53.130;8.158;2023-02-14T08:38:42;6.80;90.00
71188;DHT22;58893;53.130;8.158;2023-02-14T08:41:10;6.80;90.00
71188;DHT22;58893;53.130;8.158;2023-02-14T08:43:36;6.80;90.30
71188;DHT22;58893;53.130;8.158;2023-02-14T08:46:02;6.80;90.00
71188;DHT22;58893;53.130;8.158;2023-02-14T08:48:27;6.80;90.20
71188;DHT22;58893;53.130;8.158;2023-02-14T08:50:53;6.80;90.40
71188;DHT22;58893;53.130;8.158;2023-02-14T08:53:18;6.80;90.20
71188;DHT22;58893;53.130;8.158;2023-02-14T08:55:46;6.80;90.20
71188;DHT22;58893;53.130;8.158;2023-02-14T08:58:13;6.80;90.20
71188;DHT22;58893;53.130;8.158;2023-02-14T09:00:39;6.90;90.30
71188;DHT22;58893;53.130;8.158;2023-02-14T09:03:04;6.80;90.30
71188;DHT22;58893;53.130;8.158;2023-02-14T09:05:31;6.90;90.40
71188;DHT22;58893;53.130;8.158;2023-02-14T09:07:57;6.90;90.40
71188;DHT22;58893;53.130;8.158;2023-02-14T09:10:23;6.90;90.40
71188;DHT22;58893;53.130;8.158;2023-02-14T09:12:49;6.90;90.40
71188;DHT22;58893;53.130;8.158;2023-02-14T09:15:15;6.90;90.50
71188;DHT22;58893;53.130;8.158;2023-02-14T09:17:40;6.90;90.70
71188;DHT22;58893;53.130;8.158;2023-02-14T09:20:09;6.90;90.70
71188;DHT22;58893;53.130;8.158;2023-02-14T09:22:35;6.90;90.70
71188;DHT22;58893;53.130;8.158;2023-02-14T09:25:01;6.90;90.70
71188;DHT22;58893;53.130;8.158;2023-02-14T09:27:27;6.90;91.00
71188;DHT22;58893;53.130;8.158;2023-02-14T09:29:52;6.90;90.90
71188;DHT22;58893;53.130;8.158;2023-02-14T09:32:18;6.90;90.80
71188;DHT22;58893;53.130;8.158;2023-02-14T09:34:44;6.90;90.80
71188;DHT22;58893;53.130;8.158;2023-02-14T09:37:28;7.00;90.90
71188;DHT22;58893;53.130;8.158;2023-02-14T09:39:54;7.00;91.00
71188;DHT22;58893;53.130;8.158;2023-02-14T09:42:38;7.00;91.10
71188;DHT22;58893;53.130;8.158;2023-02-14T09:45:20;7.10;91.10
71188;DHT22;58893;53.130;8.158;2023-02-14T09:48:03;7.10;91.20
71188;DHT22;58893;53.130;8.158;2023-02-14T09:50:48;7.10;91.20
71188;DHT22;58893;53.130;8.158;2023-02-14T09:53:25;7.10;91.30
71188;DHT22;58893;53.130;8.158;2023-02-14T09:56:11;7.20;91.40
71188;DHT22;58893;53.130;8.158;2023-02-14T10:01:28;7.20;93.10
71188;DHT22;58893;53.130;8.158;2023-02-14T10:05:08;7.20;92.60
71188;DHT22;58893;53.130;8.158;2023-02-14T10:07:17;7.30;91.80
71188;DHT22;58893;53.130;8.158;2023-02-14T10:10:25;7.30;92.00
71188;DHT22;58893;53.130;8.158;2023-02-14T10:16:04;7.50;93.70
71188;DHT22;58893;53.130;8.158;2023-02-14T10:18:56;7.50;92.30
71188;DHT22;58893;53.130;8.158;2023-02-14T10:21:38;7.60;92.80
71188;DHT22;58893;53.130;8.158;2023-02-14T10:26:49;7.80;95.70
71188;DHT22;58893;53.130;8.158;2023-02-14T10:29:18;7.90;94.70
71188;DHT22;58893;53.130;8.158;2023-02-14T10:34:42;7.90;93.20
71188;DHT22;58893;53.130;8.158;2023-02-14T10:40:48;8.00;94.70
71188;DHT22;58893;53.130;8.158;2023-02-14T10:56:35;8.10;92.20
71188;DHT22;58893;53.130;8.158;2023-02-14T11:01:47;8.20;92.80
71188;DHT22;58893;53.130;8.158;2023-02-14T11:04:14;8.30;93.30
71188;DHT22;58893;53.130;8.158;2023-02-14T11:06:41;8.40;93.50
71188;DHT22;58893;53.130;8.158;2023-02-14T11:09:09;8.50;93.60
71188;DHT22;58893;53.130;8.158;2023-02-14T11:11:39;8.60;93.40
71188;DHT22;58893;53.130;8.158;2023-02-14T11:16:48;8.80;93.10
71188;DHT22;58893;53.130;8.158;2023-02-14T11:21:46;8.90;93.00
71188;DHT22;58893;53.130;8.158;2023-02-14T11:24:33;8.90;92.80
71188;DHT22;58893;53.130;8.158;2023-02-14T11:32:08;9.00;92.70
71188;DHT22;58893;53.130;8.158;2023-02-14T11:34:37;9.00;92.80
71188;DHT22;58893;53.130;8.158;2023-02-14T11:39:41;9.10;92.80
71188;DHT22;58893;53.130;8.158;2023-02-14T11:42:11;9.10;92.80
71188;DHT22;58893;53.130;8.158;2023-02-14T11:44:53;9.20;92.80
71188;DHT22;58893;53.130;8.158;2023-02-14T11:47:26;9.20;92.90
71188;DHT22;58893;53.130;8.158;2023-02-14T11:50:00;9.20;92.80
71188;DHT22;58893;53.130;8.158;2023-02-14T11:52:27;9.30;92.80
71188;DHT22;58893;53.130;8.158;2023-02-14T11:54:55;9.30;92.80
71188;DHT22;58893;53.130;8.158;2023-02-14T11:59:50;9.40;93.00
71188;DHT22;58893;53.130;8.158;2023-02-14T12:04:46;9.40;93.10
71188;DHT22;58893;53.130;8.158;2023-02-14T12:07:29;9.50;93.20
71188;DHT22;58893;53.130;8.158;2023-02-14T12:12:34;9.50;93.30
71188;DHT22;58893;53.130;8.158;2023-02-14T12:26:35;9.80;93.60
71188;DHT22;58893;53.130;8.158;2023-02-14T12:31:38;9.90;93.80
71188;DHT22;58893;53.130;8.158;2023-02-14T12:34:04;10.00;93.40
71188;DHT22;58893;53.130;8.158;2023-02-14T12:39:52;10.10;93.20
71188;DHT22;58893;53.130;8.158;2023-02-14T12:45:41;10.30;93.20
71188;DHT22;58893;53.130;8.158;2023-02-14T12:50:56;10.40;92.20
71188;DHT22;58893;53.130;8.158;2023-02-14T12:56:30;10.50;91.70
71188;DHT22;58893;53.130;8.158;2023-02-14T13:20:58;11.00;90.20
71188;DHT22;58893;53.130;8.158;2023-02-14T13:23:36;11.10;90.20
71188;DHT22;58893;53.130;8.158;2023-02-14T13:26:16;11.10;90.20
71188;DHT22;58893;53.130;8.158;2023-02-14T13:29:01;11.20;90.20
71188;DHT22;58893;53.130;8.158;2023-02-14T13:31:27;11.20;90.20
71188;DHT22;58893;53.130;8.158;2023-02-14T13:33:57;11.20;90.10
71188;DHT22;58893;53.130;8.158;2023-02-14T13:36:25;11.30;89.90
71188;DHT22;58893;53.130;8.158;2023-02-14T13:38:54;11.30;89.70
71188;DHT22;58893;53.130;8.158;2023-02-14T13:41:21;11.30;89.50
71188;DHT22;58893;53.130;8.158;2023-02-14T13:46:43;11.40;88.50
71188;DHT22;58893;53.130;8.158;2023-02-14T13:49:29;11.40;88.40
71188;DHT22;58893;53.130;8.158;2023-02-14T13:51:58;11.50;88.40
71188;DHT22;58893;53.130;8.158;2023-02-14T13:57:01;11.50;88.20
71188;DHT22;58893;53.130;8.158;2023-02-14T13:59:32;11.60;88.00
71188;DHT22;58893;53.130;8.158;2023-02-14T14:04:52;11.60;87.80
71188;DHT22;58893;53.130;8.158;2023-02-14T14:07:21;11.60;87.20
71188;DHT22;58893;53.130;8.158;2023-02-14T14:09:54;11.70;87.10
71188;DHT22;58893;53.130;8.158;2023-02-14T14:19:56;11.80;86.70
71188;DHT22;58893;53.130;8.158;2023-02-14T14:22:22;11.80;86.60
71188;DHT22;58893;53.130;8.158;2023-02-14T14:25:00;11.80;86.40
71188;DHT22;58893;53.130;8.158;2023-02-14T14:27:59;11.80;86.20
71188;DHT22;58893;53.130;8.158;2023-02-14T14:30:23;11.80;85.90
71188;DHT22;58893;53.130;8.158;2023-02-14T14:32:49;11.90;85.80
71188;DHT22;58893;53.130;8.158;2023-02-14T14:35:23;11.90;85.70
71188;DHT22;58893;53.130;8.158;2023-02-14T14:37:51;11.90;86.50
71188;DHT22;58893;53.130;8.158;2023-02-14T14:40:30;11.90;85.30
71188;DHT22;58893;53.130;8.158;2023-02-14T14:43:05;11.90;85.00
71188;DHT22;58893;53.130;8.158;2023-02-14T14:45:34;11.90;84.70
71188;DHT22;58893;53.130;8.158;2023-02-14T14:48:07;11.90;84.20
71188;DHT22;58893;53.130;8.158;2023-02-14T14:50:35;12.00;84.10
71188;DHT22;58893;53.130;8.158;2023-02-14T14:53:03;12.00;84.50
71188;DHT22;58893;53.130;8.158;2023-02-14T14:55:35;12.00;83.70
71188;DHT22;58893;53.130;8.158;2023-02-14T14:58:05;12.00;83.70
71188;DHT22;58893;53.130;8.158;2023-02-14T15:00:34;12.00;83.60
71188;DHT22;58893;53.130;8.158;2023-02-14T15:05:40;12.00;83.30
71188;DHT22;58893;53.130;8.158;2023-02-14T15:13:17;12.10;83.00
71188;DHT22;58893;53.130;8.158;2023-02-14T15:16:01;12.10;82.80
71188;DHT22;58893;53.130;8.158;2023-02-14T15:18:27;12.10;83.10
71188;DHT22;58893;53.130;8.158;2023-02-14T15:20:53;12.10;82.30
71188;DHT22;58893;53.130;8.158;2023-02-14T15:23:22;12.10;82.10
71188;DHT22;58893;53.130;8.158;2023-02-14T15:25:49;12.10;81.90
71188;DHT22;58893;53.130;8.158;2023-02-14T15:28:27;12.10;81.70
71188;DHT22;58893;53.130;8.158;2023-02-14T15:30:58;12.10;81.50
71188;DHT22;58893;53.130;8.158;2023-02-14T15:33:25;12.10;81.50
71188;DHT22;58893;53.130;8.158;2023-02-14T15:35:51;12.10;81.30
71188;DHT22;58893;53.130;8.158;2023-02-14T15:38:19;12.10;81.20
71188;DHT22;58893;53.130;8.158;2023-02-14T15:40:46;12.10;81.30
71188;DHT22;58893;53.130;8.158;2023-02-14T15:43:31;12.10;81.30
71188;DHT22;58893;53.130;8.158;2023-02-14T15:46:24;12.10;81.40
71188;DHT22;58893;53.130;8.158;2023-02-14T15:48:52;12.10;81.40
71188;DHT22;58893;53.130;8.158;2023-02-14T15:51:27;12.10;81.40
71188;DHT22;58893;53.130;8.158;2023-02-14T15:54:01;12.10;81.40
71188;DHT22;58893;53.130;8.158;2023-02-14T15:56:30;12.00;81.20
71188;DHT22;58893;53.130;8.158;2023-02-14T15:59:34;12.00;81.10
71188;DHT22;58893;53.130;8.158;2023-02-14T16:01:59;12.00;81.10
71188;DHT22;58893;53.130;8.158;2023-02-14T16:04:28;12.00;81.00
71188;DHT22;58893;53.130;8.158;2023-02-14T16:09:48;12.00;80.90
71188;DHT22;58893;53.130;8.158;2023-02-14T16:12:29;11.90;80.80
71188;DHT22;58893;53.130;8.158;2023-02-14T16:15:19;11.90;80.90
71188;DHT22;58893;53.130;8.158;2023-02-14T16:17:46;11.80;80.80
71188;DHT22;58893;53.130;8.158;2023-02-14T16:20:26;11.80;80.90
71188;DHT22;58893;53.130;8.158;2023-02-14T16:22:53;11.80;80.90
71188;DHT22;58893;53.130;8.158;2023-02-14T16:25:39;11.70;80.80
71188;DHT22;58893;53.130;8.158;2023-02-14T16:28:05;11.70;80.80
71188;DHT22;58893;53.130;8.158;2023-02-14T16:30:31;11.70;80.90
71188;DHT22;58893;53.130;8.158;2023-02-14T16:32:57;11.60;80.80
71188;DHT22;58893;53.130;8.158;2023-02-14T16:35:22;11.60;80.90
71188;DHT22;58893;53.130;8.158;2023-02-14T16:37:50;11.50;81.00
71188;DHT22;58893;53.130;8.158;2023-02-14T16:40:25;11.50;81.00
71188;DHT22;58893;53.130;8.158;2023-02-14T16:42:51;11.50;81.10
71188;DHT22;58893;53.130;8.158;2023-02-14T16:45:18;11.40;81.20
71188;DHT22;58893;53.130;8.158;2023-02-14T16:47:47;11.40;81.40
71188;DHT22;58893;53.130;8.158;2023-02-14T16:50:14;11.40;81.70
71188;DHT22;58893;53.130;8.158;2023-02-14T16:52:40;11.40;82.40
71188;DHT22;58893;53.130;8.158;2023-02-14T16:55:14;11.40;82.80
71188;DHT22;58893;53.130;8.158;2023-02-14T16:57:42;11.40;83.20
71188;DHT22;58893;53.130;8.158;2023-02-14T17:00:09;11.40;83.60
71188;DHT22;58893;53.130;8.158;2023-02-14T17:02:36;11.40;84.00
71188;DHT22;58893;53.130;8.158;2023-02-14T17:05:02;11.30;84.10
71188;DHT22;58893;53.130;8.158;2023-02-14T17:07:31;11.30;84.30
71188;DHT22;58893;53.130;8.158;2023-02-14T17:10:04;11.30;84.50
71188;DHT22;58893;53.130;8.158;2023-02-14T17:12:32;11.30;84.70
71188;DHT22;58893;53.130;8.158;2023-02-14T17:15:02;11.30;84.80
71188;DHT22;58893;53.130;8.158;2023-02-14T17:17:34;11.20;84.90
71188;DHT22;58893;53.130;8.158;2023-02-14T17:20:00;11.20;85.00
71188;DHT22;58893;53.130;8.158;2023-02-14T17:22:26;11.20;85.10
71188;DHT22;58893;53.130;8.158;2023-02-14T17:24:52;11.20;85.20
71188;DHT22;58893;53.130;8.158;2023-02-14T17:27:17;11.10;85.20
71188;DHT22;58893;53.130;8.158;2023-02-14T17:29:43;11.10;84.90
71188;DHT22;58893;53.130;8.158;2023-02-14T17:32:12;11.10;84.80
71188;DHT22;58893;53.130;8.158;2023-02-14T17:34:38;11.00;84.70
71188;DHT22;58893;53.130;8.158;2023-02-14T17:37:05;11.00;84.70
71188;DHT22;58893;53.130;8.158;2023-02-14T17:39:31;10.90;84.60
71188;DHT22;58893;53.130;8.158;2023-02-14T17:41:57;10.80;84.80
71188;DHT22;58893;53.130;8.158;2023-02-14T17:44:22;10.80;85.10
71188;DHT22;58893;53.130;8.158;2023-02-14T17:46:48;10.70;85.00
71188;DHT22;58893;53.130;8.158;2023-02-14T17:49:14;10.70;84.80
71188;DHT22;58893;53.130;8.158;2023-02-14T17:51:39;10.60;84.70
71188;DHT22;58893;53.130;8.158;2023-02-14T17:54:05;10.60;84.80
71188;DHT22;58893;53.130;8.158;2023-02-14T17:56:31;10.50;84.70
71188;DHT22;58893;53.130;8.158;2023-02-14T17:58:56;10.40;84.80
71188;DHT22;58893;53.130;8.158;2023-02-14T18:01:25;10.30;84.70
71188;DHT22;58893;53.130;8.158;2023-02-14T18:03:53;10.30;84.90
71188;DHT22;58893;53.130;8.158;2023-02-14T18:06:19;10.20;85.00
71188;DHT22;58893;53.130;8.158;2023-02-14T18:08:46;10.10;85.10
71188;DHT22;58893;53.130;8.158;2023-02-14T18:11:14;10.10;85.30
71188;DHT22;58893;53.130;8.158;2023-02-14T18:13:40;10.00;85.40
71188;DHT22;58893;53.130;8.158;2023-02-14T18:16:17;10.00;85.40
71188;DHT22;58893;53.130;8.158;2023-02-14T18:18:43;9.90;86.50
71188;DHT22;58893;53.130;8.158;2023-02-14T18:21:11;9.90;86.50
71188;DHT22;58893;53.130;8.158;2023-02-14T18:23:37;9.80;86.40
71188;DHT22;58893;53.130;8.158;2023-02-14T18:26:05;9.70;86.40
71188;DHT22;58893;53.130;8.158;2023-02-14T18:28:32;9.70;86.50
71188;DHT22;58893;53.130;8.158;2023-02-14T18:31:13;9.60;86.40
71188;DHT22;58893;53.130;8.158;2023-02-14T18:33:39;9.60;86.40
71188;DHT22;58893;53.130;8.158;2023-02-14T18:36:10;9.50;86.30
71188;DHT22;58893;53.130;8.158;2023-02-14T18:38:37;9.50;86.40
71188;DHT22;58893;53.130;8.158;2023-02-14T18:41:04;9.40;86.50
71188;DHT22;58893;53.130;8.158;2023-02-14T18:43:31;9.40;86.40
71188;DHT22;58893;53.130;8.158;2023-02-14T18:46:11;9.30;86.20